sensor_id;sensor_type;location;lat;lon;timestamp;P1;durP1;ratioP1;P2;durP2;ratioP2
75550;SDS011;65071;53.082;18.218;2022-11-15T00:02:07;35.50;;;14.00;;
75550;SDS011;65071;53.082;18.218;2022-11-15T00:04:52;36.40;;;14.50;;
75550;SDS011;65071;53.082;18.218;2022-11-15T00:07:38;38.20;;;15.40;;
75550;SDS011;65071;53.082;18.218;2022-11-15T00:10:24;32.70;;;15.20;;
75550;SDS011;65071;53.082;18.218;2022-11-15T00:13:10;31.30;;;13.80;;
75550;SDS011;65071;53.082;18.218;2022-11-15T00:15:58;35.40;;;14.30;;
75550;SDS011;65071;53.082;18.218;2022-11-15T00:18:45;39.30;;;15.40;;
75550;SDS011;65071;53.082;18.218;2022-11-15T00:21:30;36.80;;;15.50;;
75550;SDS011;65071;53.082;18.218;2022-11-15T00:24:16;34.10;;;13.90;;
75550;SDS011;65071;53.082;18.218;2022-11-15T00:27:02;32.20;;;12.40;;
75550;SDS011;65071;53.082;18.218;2022-11-15T00:29:47;35.30;;;15.10;;
75550;SDS011;65071;53.082;18.218;2022-11-15T00:32:33;33.40;;;13.30;;
75550;SDS011;65071;53.082;18.218;2022-11-15T00:35:18;35.70;;;15.10;;
75550;SDS011;65071;53.082;18.218;2022-11-15T00:38:04;39.50;;;15.60;;
75550;SDS011;65071;53.082;18.218;2022-11-15T00:40:50;37.00;;;15.80;;
75550;SDS011;65071;53.082;18.218;2022-11-15T00:43:35;36.60;;;16.20;;
75550;SDS011;65071;53.082;18.218;2022-11-15T00:46:21;33.00;;;14.00;;
75550;SDS011;65071;53.082;18.218;2022-11-15T00:49:06;36.70;;;15.60;;
75550;SDS011;65071;53.082;18.218;2022-11-15T00:51:52;26.60;;;11.50;;
75550;SDS011;65071;53.082;18.218;2022-11-15T00:54:38;34.10;;;13.80;;
75550;SDS011;65071;53.082;18.218;2022-11-15T00:57:23;36.50;;;14.60;;
75550;SDS011;65071;53.082;18.218;2022-11-15T01:00:09;32.00;;;13.70;;
75550;SDS011;65071;53.082;18.218;2022-11-15T01:02:55;35.30;;;13.20;;
75550;SDS011;65071;53.082;18.218;2022-11-15T01:05:40;34.90;;;13.30;;
75550;SDS011;65071;53.082;18.218;2022-11-15T01:08:26;39.40;;;16.50;;
75550;SDS011;65071;53.082;18.218;2022-11-15T01:11:12;35.00;;;14.70;;
75550;SDS011;65071;53.082;18.218;2022-11-15T01:13:57;34.30;;;14.90;;
75550;SDS011;65071;53.082;18.218;2022-11-15T01:16:43;42.40;;;15.40;;
75550;SDS011;65071;53.082;18.218;2022-11-15T01:19:28;33.00;;;12.90;;
75550;SDS011;65071;53.082;18.218;2022-11-15T01:22:14;35.00;;;13.40;;
75550;SDS011;65071;53.082;18.218;2022-11-15T01:24:59;28.40;;;12.00;;
75550;SDS011;65071;53.082;18.218;2022-11-15T01:27:45;27.60;;;11.00;;
75550;SDS011;65071;53.082;18.218;2022-11-15T01:30:30;42.80;;;14.60;;
75550;SDS011;65071;53.082;18.218;2022-11-15T01:33:16;41.00;;;15.70;;
75550;SDS011;65071;53.082;18.218;2022-11-15T01:36:05;33.30;;;11.10;;
75550;SDS011;65071;53.082;18.218;2022-11-15T01:38:56;31.40;;;13.40;;
75550;SDS011;65071;53.082;18.218;2022-11-15T01:41:42;31.30;;;11.10;;
75550;SDS011;65071;53.082;18.218;2022-11-15T01:47:20;40.10;;;15.70;;
75550;SDS011;65071;53.082;18.218;2022-11-15T01:50:10;29.00;;;11.40;;
75550;SDS011;65071;53.082;18.218;2022-11-15T01:52:59;31.30;;;13.30;;
75550;SDS011;65071;53.082;18.218;2022-11-15T01:55:44;35.70;;;13.20;;
75550;SDS011;65071;53.082;18.218;2022-11-15T01:58:30;41.00;;;15.20;;
75550;SDS011;65071;53.082;18.218;2022-11-15T02:01:16;42.10;;;14.80;;
75550;SDS011;65071;53.082;18.218;2022-11-15T02:04:03;33.00;;;13.50;;
75550;SDS011;65071;53.082;18.218;2022-11-15T02:06:55;30.50;;;12.40;;
75550;SDS011;65071;53.082;18.218;2022-11-15T02:09:40;27.60;;;10.70;;
75550;SDS011;65071;53.082;18.218;2022-11-15T02:12:27;46.40;;;16.20;;
75550;SDS011;65071;53.082;18.218;2022-11-15T02:15:13;32.70;;;12.90;;
75550;SDS011;65071;53.082;18.218;2022-11-15T02:20:49;24.00;;;9.90;;
75550;SDS011;65071;53.082;18.218;2022-11-15T02:37:02;32.00;;;12.70;;
75550;SDS011;65071;53.082;18.218;2022-11-15T02:39:58;32.40;;;12.60;;
75550;SDS011;65071;53.082;18.218;2022-11-15T02:42:54;25.50;;;9.80;;
75550;SDS011;65071;53.082;18.218;2022-11-15T02:46:23;39.60;;;12.90;;
75550;SDS011;65071;53.082;18.218;2022-11-15T02:49:42;30.70;;;11.40;;
75550;SDS011;65071;53.082;18.218;2022-11-15T02:52:31;32.30;;;11.90;;
75550;SDS011;65071;53.082;18.218;2022-11-15T02:55:36;26.60;;;9.70;;
75550;SDS011;65071;53.082;18.218;2022-11-15T03:13:53;27.30;;;10.10;;
75550;SDS011;65071;53.082;18.218;2022-11-15T03:19:40;29.40;;;11.00;;
75550;SDS011;65071;53.082;18.218;2022-11-15T03:22:38;36.90;;;12.40;;
75550;SDS011;65071;53.082;18.218;2022-11-15T03:25:28;35.80;;;11.90;;
75550;SDS011;65071;53.082;18.218;2022-11-15T03:28:19;33.40;;;11.00;;
75550;SDS011;65071;53.082;18.218;2022-11-15T03:31:08;18.70;;;7.70;;
75550;SDS011;65071;53.082;18.218;2022-11-15T03:37:39;22.70;;;9.50;;
75550;SDS011;65071;53.082;18.218;2022-11-15T03:40:34;39.10;;;12.40;;
75550;SDS011;65071;53.082;18.218;2022-11-15T03:43:29;35.90;;;11.90;;
75550;SDS011;65071;53.082;18.218;2022-11-15T03:46:28;28.60;;;9.40;;
75550;SDS011;65071;53.082;18.218;2022-11-15T03:49:29;29.80;;;11.00;;
75550;SDS011;65071;53.082;18.218;2022-11-15T03:52:19;30.10;;;10.90;;
75550;SDS011;65071;53.082;18.218;2022-11-15T03:55:07;31.10;;;10.90;;
75550;SDS011;65071;53.082;18.218;2022-11-15T03:57:57;36.40;;;12.60;;
75550;SDS011;65071;53.082;18.218;2022-11-15T04:00:44;40.90;;;12.80;;
75550;SDS011;65071;53.082;18.218;2022-11-15T04:03:30;34.80;;;12.40;;
75550;SDS011;65071;53.082;18.218;2022-11-15T04:06:15;35.90;;;13.10;;
75550;SDS011;65071;53.082;18.218;2022-11-15T04:09:01;33.80;;;12.50;;
75550;SDS011;65071;53.082;18.218;2022-11-15T04:11:46;39.90;;;12.30;;
75550;SDS011;65071;53.082;18.218;2022-11-15T04:14:32;38.60;;;13.50;;
75550;SDS011;65071;53.082;18.218;2022-11-15T04:17:18;43.00;;;14.90;;
75550;SDS011;65071;53.082;18.218;2022-11-15T04:20:46;30.00;;;11.40;;
75550;SDS011;65071;53.082;18.218;2022-11-15T04:23:33;28.70;;;10.30;;
75550;SDS011;65071;53.082;18.218;2022-11-15T04:26:36;33.80;;;12.10;;
75550;SDS011;65071;53.082;18.218;2022-11-15T04:29:22;34.80;;;10.60;;
75550;SDS011;65071;53.082;18.218;2022-11-15T04:32:19;37.90;;;13.60;;
75550;SDS011;65071;53.082;18.218;2022-11-15T04:35:05;41.80;;;13.60;;
75550;SDS011;65071;53.082;18.218;2022-11-15T04:37:52;34.80;;;10.90;;
75550;SDS011;65071;53.082;18.218;2022-11-15T04:40:38;32.00;;;11.20;;
75550;SDS011;65071;53.082;18.218;2022-11-15T04:43:23;29.30;;;10.80;;
75550;SDS011;65071;53.082;18.218;2022-11-15T04:46:09;30.00;;;10.20;;
75550;SDS011;65071;53.082;18.218;2022-11-15T04:48:54;32.10;;;10.90;;
75550;SDS011;65071;53.082;18.218;2022-11-15T04:51:40;40.20;;;13.30;;
75550;SDS011;65071;53.082;18.218;2022-11-15T04:54:25;30.10;;;10.90;;
75550;SDS011;65071;53.082;18.218;2022-11-15T04:57:11;42.00;;;13.80;;
75550;SDS011;65071;53.082;18.218;2022-11-15T04:59:57;25.80;;;10.10;;
75550;SDS011;65071;53.082;18.218;2022-11-15T05:02:42;32.70;;;10.50;;
75550;SDS011;65071;53.082;18.218;2022-11-15T05:05:47;34.00;;;11.30;;
75550;SDS011;65071;53.082;18.218;2022-11-15T05:08:33;38.00;;;11.40;;
75550;SDS011;65071;53.082;18.218;2022-11-15T05:11:18;37.40;;;12.50;;
75550;SDS011;65071;53.082;18.218;2022-11-15T05:14:04;35.60;;;11.40;;
75550;SDS011;65071;53.082;18.218;2022-11-15T05:16:49;28.80;;;10.80;;
75550;SDS011;65071;53.082;18.218;2022-11-15T05:19:35;28.50;;;10.90;;
75550;SDS011;65071;53.082;18.218;2022-11-15T05:22:20;30.00;;;10.00;;
75550;SDS011;65071;53.082;18.218;2022-11-15T05:25:06;38.90;;;12.30;;
75550;SDS011;65071;53.082;18.218;2022-11-15T05:27:52;37.60;;;12.30;;
75550;SDS011;65071;53.082;18.218;2022-11-15T05:30:37;38.50;;;12.60;;
75550;SDS011;65071;53.082;18.218;2022-11-15T05:33:23;29.10;;;9.70;;
75550;SDS011;65071;53.082;18.218;2022-11-15T05:36:13;29.00;;;10.30;;
75550;SDS011;65071;53.082;18.218;2022-11-15T05:39:04;32.00;;;11.80;;
75550;SDS011;65071;53.082;18.218;2022-11-15T05:41:51;38.50;;;10.60;;
75550;SDS011;65071;53.082;18.218;2022-11-15T05:44:40;41.70;;;13.00;;
75550;SDS011;65071;53.082;18.218;2022-11-15T05:47:29;31.40;;;10.40;;
75550;SDS011;65071;53.082;18.218;2022-11-15T05:50:16;29.90;;;10.20;;
75550;SDS011;65071;53.082;18.218;2022-11-15T05:53:03;32.80;;;10.90;;
75550;SDS011;65071;53.082;18.218;2022-11-15T05:55:50;30.50;;;10.30;;
75550;SDS011;65071;53.082;18.218;2022-11-15T05:58:36;36.50;;;12.30;;
75550;SDS011;65071;53.082;18.218;2022-11-15T06:01:23;34.80;;;11.90;;
75550;SDS011;65071;53.082;18.218;2022-11-15T06:04:10;30.40;;;11.30;;
75550;SDS011;65071;53.082;18.218;2022-11-15T06:06:57;34.60;;;10.90;;
75550;SDS011;65071;53.082;18.218;2022-11-15T06:09:43;32.70;;;10.90;;
75550;SDS011;65071;53.082;18.218;2022-11-15T06:12:29;34.20;;;10.70;;
75550;SDS011;65071;53.082;18.218;2022-11-15T06:15:14;28.00;;;8.90;;
75550;SDS011;65071;53.082;18.218;2022-11-15T06:18:00;29.20;;;11.40;;
75550;SDS011;65071;53.082;18.218;2022-11-15T06:20:45;28.60;;;9.30;;
75550;SDS011;65071;53.082;18.218;2022-11-15T06:23:31;34.70;;;11.30;;
75550;SDS011;65071;53.082;18.218;2022-11-15T06:26:17;37.90;;;11.80;;
75550;SDS011;65071;53.082;18.218;2022-11-15T06:29:03;30.50;;;10.40;;
75550;SDS011;65071;53.082;18.218;2022-11-15T06:31:49;35.20;;;11.90;;
75550;SDS011;65071;53.082;18.218;2022-11-15T06:34:34;37.90;;;12.90;;
75550;SDS011;65071;53.082;18.218;2022-11-15T06:37:21;34.10;;;11.00;;
75550;SDS011;65071;53.082;18.218;2022-11-15T06:40:07;44.00;;;13.30;;
75550;SDS011;65071;53.082;18.218;2022-11-15T06:42:58;28.50;;;9.80;;
75550;SDS011;65071;53.082;18.218;2022-11-15T06:45:44;36.40;;;11.20;;
75550;SDS011;65071;53.082;18.218;2022-11-15T06:48:30;34.60;;;12.40;;
75550;SDS011;65071;53.082;18.218;2022-11-15T06:51:17;35.00;;;12.70;;
75550;SDS011;65071;53.082;18.218;2022-11-15T06:54:02;25.20;;;9.50;;
75550;SDS011;65071;53.082;18.218;2022-11-15T06:56:48;30.70;;;10.70;;
75550;SDS011;65071;53.082;18.218;2022-11-15T06:59:33;32.70;;;11.20;;
75550;SDS011;65071;53.082;18.218;2022-11-15T07:02:19;25.30;;;9.20;;
75550;SDS011;65071;53.082;18.218;2022-11-15T07:05:05;35.00;;;11.90;;
75550;SDS011;65071;53.082;18.218;2022-11-15T07:07:52;43.50;;;11.80;;
75550;SDS011;65071;53.082;18.218;2022-11-15T07:10:38;30.90;;;11.50;;
75550;SDS011;65071;53.082;18.218;2022-11-15T07:13:24;32.00;;;11.90;;
75550;SDS011;65071;53.082;18.218;2022-11-15T07:18:56;31.20;;;10.60;;
75550;SDS011;65071;53.082;18.218;2022-11-15T07:21:42;26.00;;;9.50;;
75550;SDS011;65071;53.082;18.218;2022-11-15T07:24:28;32.10;;;11.20;;
75550;SDS011;65071;53.082;18.218;2022-11-15T07:27:13;35.80;;;12.00;;
75550;SDS011;65071;53.082;18.218;2022-11-15T07:29:59;32.50;;;11.70;;
75550;SDS011;65071;53.082;18.218;2022-11-15T07:32:44;29.20;;;10.10;;
75550;SDS011;65071;53.082;18.218;2022-11-15T07:35:31;24.80;;;9.90;;
75550;SDS011;65071;53.082;18.218;2022-11-15T07:38:17;23.00;;;9.20;;
75550;SDS011;65071;53.082;18.218;2022-11-15T07:41:06;29.80;;;9.90;;
75550;SDS011;65071;53.082;18.218;2022-11-15T07:43:52;31.00;;;11.60;;
75550;SDS011;65071;53.082;18.218;2022-11-15T07:46:37;25.70;;;10.30;;
75550;SDS011;65071;53.082;18.218;2022-11-15T07:49:23;29.50;;;10.70;;
75550;SDS011;65071;53.082;18.218;2022-11-15T07:52:08;24.40;;;9.50;;
75550;SDS011;65071;53.082;18.218;2022-11-15T07:54:54;22.70;;;9.50;;
75550;SDS011;65071;53.082;18.218;2022-11-15T07:57:39;34.60;;;11.30;;
75550;SDS011;65071;53.082;18.218;2022-11-15T08:00:25;26.80;;;9.60;;
75550;SDS011;65071;53.082;18.218;2022-11-15T08:03:11;19.70;;;7.50;;
75550;SDS011;65071;53.082;18.218;2022-11-15T08:05:58;24.50;;;8.40;;
75550;SDS011;65071;53.082;18.218;2022-11-15T08:08:44;28.00;;;9.80;;
75550;SDS011;65071;53.082;18.218;2022-11-15T08:11:31;25.60;;;9.50;;
75550;SDS011;65071;53.082;18.218;2022-11-15T08:14:17;28.50;;;10.60;;
75550;SDS011;65071;53.082;18.218;2022-11-15T08:17:03;21.10;;;8.40;;
75550;SDS011;65071;53.082;18.218;2022-11-15T08:19:48;26.50;;;10.30;;
75550;SDS011;65071;53.082;18.218;2022-11-15T08:22:34;27.70;;;9.90;;
75550;SDS011;65071;53.082;18.218;2022-11-15T08:25:19;25.30;;;10.20;;
75550;SDS011;65071;53.082;18.218;2022-11-15T08:28:05;26.70;;;10.20;;
75550;SDS011;65071;53.082;18.218;2022-11-15T08:30:53;30.90;;;11.00;;
75550;SDS011;65071;53.082;18.218;2022-11-15T08:33:38;24.40;;;9.90;;
75550;SDS011;65071;53.082;18.218;2022-11-15T08:36:24;25.20;;;9.50;;
75550;SDS011;65071;53.082;18.218;2022-11-15T08:39:10;23.80;;;9.70;;
75550;SDS011;65071;53.082;18.218;2022-11-15T08:41:57;22.20;;;8.00;;
75550;SDS011;65071;53.082;18.218;2022-11-15T08:44:43;17.80;;;7.50;;
75550;SDS011;65071;53.082;18.218;2022-11-15T08:47:28;23.60;;;9.20;;
75550;SDS011;65071;53.082;18.218;2022-11-15T08:50:14;27.50;;;10.10;;
75550;SDS011;65071;53.082;18.218;2022-11-15T08:53:04;25.10;;;9.30;;
75550;SDS011;65071;53.082;18.218;2022-11-15T08:55:50;15.00;;;6.50;;
75550;SDS011;65071;53.082;18.218;2022-11-15T08:58:36;22.50;;;9.00;;
75550;SDS011;65071;53.082;18.218;2022-11-15T09:01:22;21.80;;;8.60;;
75550;SDS011;65071;53.082;18.218;2022-11-15T09:04:08;25.50;;;10.10;;
75550;SDS011;65071;53.082;18.218;2022-11-15T09:06:53;24.40;;;9.30;;
75550;SDS011;65071;53.082;18.218;2022-11-15T09:09:39;21.60;;;9.00;;
75550;SDS011;65071;53.082;18.218;2022-11-15T09:12:25;23.00;;;8.50;;
75550;SDS011;65071;53.082;18.218;2022-11-15T09:15:10;18.80;;;8.20;;
75550;SDS011;65071;53.082;18.218;2022-11-15T09:17:59;21.00;;;8.60;;
75550;SDS011;65071;53.082;18.218;2022-11-15T09:20:44;19.70;;;8.40;;
75550;SDS011;65071;53.082;18.218;2022-11-15T09:23:30;23.20;;;8.50;;
75550;SDS011;65071;53.082;18.218;2022-11-15T09:26:15;21.80;;;8.90;;
75550;SDS011;65071;53.082;18.218;2022-11-15T09:29:00;22.00;;;8.80;;
75550;SDS011;65071;53.082;18.218;2022-11-15T09:31:47;21.20;;;9.10;;
75550;SDS011;65071;53.082;18.218;2022-11-15T09:34:32;19.00;;;8.90;;
75550;SDS011;65071;53.082;18.218;2022-11-15T09:37:18;29.00;;;10.90;;
75550;SDS011;65071;53.082;18.218;2022-11-15T09:40:04;27.20;;;9.10;;
75550;SDS011;65071;53.082;18.218;2022-11-15T09:45:52;23.30;;;9.40;;
75550;SDS011;65071;53.082;18.218;2022-11-15T09:49:03;20.00;;;8.40;;
75550;SDS011;65071;53.082;18.218;2022-11-15T09:51:54;20.10;;;8.60;;
75550;SDS011;65071;53.082;18.218;2022-11-15T09:54:23;18.00;;;7.60;;
75550;SDS011;65071;53.082;18.218;2022-11-15T09:57:47;23.30;;;9.10;;
75550;SDS011;65071;53.082;18.218;2022-11-15T10:03:22;23.50;;;9.50;;
75550;SDS011;65071;53.082;18.218;2022-11-15T10:06:03;30.00;;;11.10;;
75550;SDS011;65071;53.082;18.218;2022-11-15T10:11:24;27.70;;;9.40;;
75550;SDS011;65071;53.082;18.218;2022-11-15T10:13:54;32.00;;;10.80;;
75550;SDS011;65071;53.082;18.218;2022-11-15T10:26:46;22.80;;;9.50;;
75550;SDS011;65071;53.082;18.218;2022-11-15T10:29:20;32.90;;;11.70;;
75550;SDS011;65071;53.082;18.218;2022-11-15T10:31:48;31.90;;;12.00;;
75550;SDS011;65071;53.082;18.218;2022-11-15T10:34:16;32.50;;;12.30;;
75550;SDS011;65071;53.082;18.218;2022-11-15T10:36:46;33.40;;;13.30;;
75550;SDS011;65071;53.082;18.218;2022-11-15T10:39:20;31.30;;;12.40;;
75550;SDS011;65071;53.082;18.218;2022-11-15T10:41:46;33.10;;;12.70;;
75550;SDS011;65071;53.082;18.218;2022-11-15T10:49:20;28.50;;;10.40;;
75550;SDS011;65071;53.082;18.218;2022-11-15T10:51:49;29.40;;;12.20;;
75550;SDS011;65071;53.082;18.218;2022-11-15T10:57:22;28.70;;;11.70;;
75550;SDS011;65071;53.082;18.218;2022-11-15T10:59:56;24.80;;;10.20;;
75550;SDS011;65071;53.082;18.218;2022-11-15T11:02:28;31.90;;;12.50;;
75550;SDS011;65071;53.082;18.218;2022-11-15T11:05:06;32.50;;;11.60;;
75550;SDS011;65071;53.082;18.218;2022-11-15T11:07:55;29.40;;;11.20;;
75550;SDS011;65071;53.082;18.218;2022-11-15T11:10:25;28.70;;;11.10;;
75550;SDS011;65071;53.082;18.218;2022-11-15T11:12:51;33.00;;;11.50;;
75550;SDS011;65071;53.082;18.218;2022-11-15T11:15:18;28.20;;;11.70;;
75550;SDS011;65071;53.082;18.218;2022-11-15T11:32:12;33.00;;;13.30;;
75550;SDS011;65071;53.082;18.218;2022-11-15T11:50:36;28.90;;;11.20;;
75550;SDS011;65071;53.082;18.218;2022-11-15T11:55:51;32.20;;;13.00;;
75550;SDS011;65071;53.082;18.218;2022-11-15T12:01:29;30.40;;;12.10;;
75550;SDS011;65071;53.082;18.218;2022-11-15T12:06:42;27.40;;;10.70;;
75550;SDS011;65071;53.082;18.218;2022-11-15T12:09:23;26.10;;;12.20;;
75550;SDS011;65071;53.082;18.218;2022-11-15T12:15:40;33.40;;;12.80;;
75550;SDS011;65071;53.082;18.218;2022-11-15T12:17:43;34.80;;;14.90;;
75550;SDS011;65071;53.082;18.218;2022-11-15T12:20:16;29.00;;;10.90;;
75550;SDS011;65071;53.082;18.218;2022-11-15T12:25:29;32.20;;;12.40;;
75550;SDS011;65071;53.082;18.218;2022-11-15T12:28:06;29.90;;;12.50;;
75550;SDS011;65071;53.082;18.218;2022-11-15T12:30:45;31.70;;;13.10;;
75550;SDS011;65071;53.082;18.218;2022-11-15T12:33:29;33.80;;;13.30;;
75550;SDS011;65071;53.082;18.218;2022-11-15T12:35:58;32.90;;;12.40;;
75550;SDS011;65071;53.082;18.218;2022-11-15T12:41:22;28.40;;;11.00;;
75550;SDS011;65071;53.082;18.218;2022-11-15T12:43:51;27.60;;;11.40;;
75550;SDS011;65071;53.082;18.218;2022-11-15T12:57:51;28.10;;;12.00;;
75550;SDS011;65071;53.082;18.218;2022-11-15T12:59:56;32.60;;;12.70;;
75550;SDS011;65071;53.082;18.218;2022-11-15T13:02:32;30.70;;;12.90;;
75550;SDS011;65071;53.082;18.218;2022-11-15T13:22:42;30.10;;;11.90;;
75550;SDS011;65071;53.082;18.218;2022-11-15T13:30:52;28.40;;;11.50;;
75550;SDS011;65071;53.082;18.218;2022-11-15T13:33:22;28.40;;;10.90;;
75550;SDS011;65071;53.082;18.218;2022-11-15T13:35:53;37.80;;;14.00;;
75550;SDS011;65071;53.082;18.218;2022-11-15T13:38:30;30.30;;;13.30;;
75550;SDS011;65071;53.082;18.218;2022-11-15T13:41:00;32.10;;;13.80;;
75550;SDS011;65071;53.082;18.218;2022-11-15T13:43:40;32.90;;;13.50;;
75550;SDS011;65071;53.082;18.218;2022-11-15T13:46:11;36.80;;;14.50;;
75550;SDS011;65071;53.082;18.218;2022-11-15T13:48:41;24.90;;;11.40;;
75550;SDS011;65071;53.082;18.218;2022-11-15T13:51:15;37.80;;;13.00;;
75550;SDS011;65071;53.082;18.218;2022-11-15T13:53:53;41.40;;;15.00;;
75550;SDS011;65071;53.082;18.218;2022-11-15T13:56:30;35.20;;;13.00;;
75550;SDS011;65071;53.082;18.218;2022-11-15T13:59:01;34.00;;;12.60;;
75550;SDS011;65071;53.082;18.218;2022-11-15T14:01:35;33.00;;;12.80;;
75550;SDS011;65071;53.082;18.218;2022-11-15T14:04:03;33.30;;;12.90;;
75550;SDS011;65071;53.082;18.218;2022-11-15T14:06:30;32.30;;;12.40;;
75550;SDS011;65071;53.082;18.218;2022-11-15T14:08:58;33.70;;;12.20;;
75550;SDS011;65071;53.082;18.218;2022-11-15T14:11:28;29.50;;;11.30;;
75550;SDS011;65071;53.082;18.218;2022-11-15T14:16:36;32.20;;;12.50;;
75550;SDS011;65071;53.082;18.218;2022-11-15T14:19:05;34.10;;;12.70;;
75550;SDS011;65071;53.082;18.218;2022-11-15T14:21:33;21.00;;;9.00;;
75550;SDS011;65071;53.082;18.218;2022-11-15T14:26:42;35.40;;;12.00;;
75550;SDS011;65071;53.082;18.218;2022-11-15T14:32:13;27.40;;;10.40;;
75550;SDS011;65071;53.082;18.218;2022-11-15T14:34:57;23.60;;;10.00;;
75550;SDS011;65071;53.082;18.218;2022-11-15T14:37:26;23.70;;;9.50;;
75550;SDS011;65071;53.082;18.218;2022-11-15T14:39:55;26.10;;;9.20;;
75550;SDS011;65071;53.082;18.218;2022-11-15T14:42:22;22.80;;;9.60;;
75550;SDS011;65071;53.082;18.218;2022-11-15T14:44:49;28.10;;;9.60;;
75550;SDS011;65071;53.082;18.218;2022-11-15T14:47:17;27.70;;;11.60;;
75550;SDS011;65071;53.082;18.218;2022-11-15T14:49:44;24.40;;;10.30;;
75550;SDS011;65071;53.082;18.218;2022-11-15T14:52:19;23.60;;;9.30;;
75550;SDS011;65071;53.082;18.218;2022-11-15T14:54:49;20.90;;;9.40;;
75550;SDS011;65071;53.082;18.218;2022-11-15T14:57:16;22.00;;;8.30;;
75550;SDS011;65071;53.082;18.218;2022-11-15T14:59:43;29.00;;;10.20;;
75550;SDS011;65071;53.082;18.218;2022-11-15T15:02:13;27.30;;;10.80;;
75550;SDS011;65071;53.082;18.218;2022-11-15T15:04:43;30.20;;;10.80;;
75550;SDS011;65071;53.082;18.218;2022-11-15T15:09:36;24.10;;;11.10;;
75550;SDS011;65071;53.082;18.218;2022-11-15T15:12:02;25.60;;;10.10;;
75550;SDS011;65071;53.082;18.218;2022-11-15T15:14:30;27.00;;;10.70;;
75550;SDS011;65071;53.082;18.218;2022-11-15T15:16:56;29.10;;;12.00;;
75550;SDS011;65071;53.082;18.218;2022-11-15T15:19:23;27.10;;;11.10;;
75550;SDS011;65071;53.082;18.218;2022-11-15T15:21:50;26.30;;;11.20;;
75550;SDS011;65071;53.082;18.218;2022-11-15T15:24:17;26.50;;;9.90;;
75550;SDS011;65071;53.082;18.218;2022-11-15T15:26:43;19.40;;;8.60;;
75550;SDS011;65071;53.082;18.218;2022-11-15T15:29:10;23.30;;;8.90;;
75550;SDS011;65071;53.082;18.218;2022-11-15T15:31:36;23.90;;;9.40;;
75550;SDS011;65071;53.082;18.218;2022-11-15T15:34:03;29.10;;;10.50;;
75550;SDS011;65071;53.082;18.218;2022-11-15T15:36:30;23.10;;;8.80;;
75550;SDS011;65071;53.082;18.218;2022-11-15T15:38:57;18.90;;;8.30;;
75550;SDS011;65071;53.082;18.218;2022-11-15T15:41:24;18.70;;;7.90;;
75550;SDS011;65071;53.082;18.218;2022-11-15T15:43:51;23.30;;;8.80;;
75550;SDS011;65071;53.082;18.218;2022-11-15T15:46:18;23.70;;;9.40;;
75550;SDS011;65071;53.082;18.218;2022-11-15T15:48:46;23.60;;;8.60;;
75550;SDS011;65071;53.082;18.218;2022-11-15T15:51:13;20.20;;;9.90;;
75550;SDS011;65071;53.082;18.218;2022-11-15T15:53:39;23.10;;;10.30;;
75550;SDS011;65071;53.082;18.218;2022-11-15T15:56:06;21.40;;;9.30;;
75550;SDS011;65071;53.082;18.218;2022-11-15T15:58:34;29.60;;;11.90;;
75550;SDS011;65071;53.082;18.218;2022-11-15T16:01:01;25.90;;;11.10;;
75550;SDS011;65071;53.082;18.218;2022-11-15T16:03:28;21.70;;;9.40;;
75550;SDS011;65071;53.082;18.218;2022-11-15T16:05:55;27.70;;;11.50;;
75550;SDS011;65071;53.082;18.218;2022-11-15T16:08:22;25.20;;;11.30;;
75550;SDS011;65071;53.082;18.218;2022-11-15T16:10:51;39.30;;;16.80;;
75550;SDS011;65071;53.082;18.218;2022-11-15T16:13:17;30.40;;;12.60;;
75550;SDS011;65071;53.082;18.218;2022-11-15T16:15:44;27.30;;;11.60;;
75550;SDS011;65071;53.082;18.218;2022-11-15T16:18:15;27.10;;;10.90;;
75550;SDS011;65071;53.082;18.218;2022-11-15T16:20:47;29.60;;;11.90;;
75550;SDS011;65071;53.082;18.218;2022-11-15T16:23:22;26.30;;;10.00;;
75550;SDS011;65071;53.082;18.218;2022-11-15T16:25:51;33.60;;;12.40;;
75550;SDS011;65071;53.082;18.218;2022-11-15T16:28:25;33.40;;;14.30;;
75550;SDS011;65071;53.082;18.218;2022-11-15T16:31:01;32.20;;;12.80;;
75550;SDS011;65071;53.082;18.218;2022-11-15T16:33:38;29.10;;;11.60;;
75550;SDS011;65071;53.082;18.218;2022-11-15T16:36:11;30.40;;;12.40;;
75550;SDS011;65071;53.082;18.218;2022-11-15T16:38:46;27.40;;;11.70;;
75550;SDS011;65071;53.082;18.218;2022-11-15T16:41:13;30.20;;;11.40;;
75550;SDS011;65071;53.082;18.218;2022-11-15T16:43:40;28.10;;;12.10;;
75550;SDS011;65071;53.082;18.218;2022-11-15T16:46:11;26.00;;;11.50;;
75550;SDS011;65071;53.082;18.218;2022-11-15T16:48:42;28.00;;;11.60;;
75550;SDS011;65071;53.082;18.218;2022-11-15T16:51:09;23.10;;;9.60;;
75550;SDS011;65071;53.082;18.218;2022-11-15T16:53:36;30.50;;;11.50;;
75550;SDS011;65071;53.082;18.218;2022-11-15T16:56:03;33.50;;;12.80;;
75550;SDS011;65071;53.082;18.218;2022-11-15T16:58:30;27.00;;;10.30;;
75550;SDS011;65071;53.082;18.218;2022-11-15T17:00:58;30.00;;;10.80;;
75550;SDS011;65071;53.082;18.218;2022-11-15T17:03:25;27.90;;;10.70;;
75550;SDS011;65071;53.082;18.218;2022-11-15T17:05:52;28.30;;;10.90;;
75550;SDS011;65071;53.082;18.218;2022-11-15T17:08:18;28.50;;;12.10;;
75550;SDS011;65071;53.082;18.218;2022-11-15T17:10:47;22.30;;;9.10;;
75550;SDS011;65071;53.082;18.218;2022-11-15T17:13:13;31.50;;;12.00;;
75550;SDS011;65071;53.082;18.218;2022-11-15T17:15:40;27.50;;;11.10;;
75550;SDS011;65071;53.082;18.218;2022-11-15T17:18:09;24.20;;;9.90;;
75550;SDS011;65071;53.082;18.218;2022-11-15T17:20:39;29.60;;;11.40;;
75550;SDS011;65071;53.082;18.218;2022-11-15T17:23:10;36.00;;;14.20;;
75550;SDS011;65071;53.082;18.218;2022-11-15T17:25:39;36.70;;;15.50;;
75550;SDS011;65071;53.082;18.218;2022-11-15T17:28:06;30.40;;;13.70;;
75550;SDS011;65071;53.082;18.218;2022-11-15T17:30:33;36.50;;;15.00;;
75550;SDS011;65071;53.082;18.218;2022-11-15T17:33:01;26.70;;;11.90;;
75550;SDS011;65071;53.082;18.218;2022-11-15T17:35:27;26.90;;;10.70;;
75550;SDS011;65071;53.082;18.218;2022-11-15T17:37:54;33.50;;;12.40;;
75550;SDS011;65071;53.082;18.218;2022-11-15T17:40:21;27.60;;;11.40;;
75550;SDS011;65071;53.082;18.218;2022-11-15T17:42:47;29.50;;;11.00;;
75550;SDS011;65071;53.082;18.218;2022-11-15T17:45:14;28.10;;;11.80;;
75550;SDS011;65071;53.082;18.218;2022-11-15T17:47:41;27.30;;;11.90;;
75550;SDS011;65071;53.082;18.218;2022-11-15T17:50:08;29.30;;;12.10;;
75550;SDS011;65071;53.082;18.218;2022-11-15T17:52:36;31.80;;;12.90;;
75550;SDS011;65071;53.082;18.218;2022-11-15T17:55:03;27.20;;;11.20;;
75550;SDS011;65071;53.082;18.218;2022-11-15T17:57:30;27.80;;;11.10;;
75550;SDS011;65071;53.082;18.218;2022-11-15T17:59:56;32.10;;;12.50;;
75550;SDS011;65071;53.082;18.218;2022-11-15T18:02:23;34.80;;;13.30;;
75550;SDS011;65071;53.082;18.218;2022-11-15T18:04:50;29.70;;;11.70;;
75550;SDS011;65071;53.082;18.218;2022-11-15T18:07:16;34.10;;;12.60;;
75550;SDS011;65071;53.082;18.218;2022-11-15T18:09:43;32.20;;;12.10;;